sensor_id;sensor_type;location;lat;lon;timestamp;temperature;humidity
43647;DHT22;56152;49.996;18.980;2022-10-17T00:00:54;10.30;92.70
43647;DHT22;56152;49.996;18.980;2022-10-17T00:05:55;10.20;92.70
43647;DHT22;56152;49.996;18.980;2022-10-17T00:11:05;10.10;92.70
43647;DHT22;56152;49.996;18.980;2022-10-17T00:16:09;10.00;92.90
43647;DHT22;56152;49.996;18.980;2022-10-17T00:21:18;10.00;92.90
43647;DHT22;56152;49.996;18.980;2022-10-17T00:26:33;10.00;92.90
43647;DHT22;56152;49.996;18.980;2022-10-17T00:31:36;9.90;92.90
43647;DHT22;56152;49.996;18.980;2022-10-17T00:36:40;9.90;93.00
43647;DHT22;56152;49.996;18.980;2022-10-17T00:41:45;9.90;93.10
43647;DHT22;56152;49.996;18.980;2022-10-17T00:46:48;9.90;93.10
43647;DHT22;56152;49.996;18.980;2022-10-17T00:52:08;9.80;93.10
43647;DHT22;56152;49.996;18.980;2022-10-17T00:57:13;9.80;93.10
43647;DHT22;56152;49.996;18.980;2022-10-17T01:02:20;9.80;93.10
43647;DHT22;56152;49.996;18.980;2022-10-17T01:07:22;9.80;93.10
43647;DHT22;56152;49.996;18.980;2022-10-17T01:12:31;9.70;93.10
43647;DHT22;56152;49.996;18.980;2022-10-17T01:17:51;9.70;93.10
43647;DHT22;56152;49.996;18.980;2022-10-17T01:23:12;9.60;93.10
43647;DHT22;56152;49.996;18.980;2022-10-17T01:33:58;9.50;93.20
43647;DHT22;56152;49.996;18.980;2022-10-17T01:39:06;9.40;93.30
43647;DHT22;56152;49.996;18.980;2022-10-17T01:44:13;9.30;93.30
43647;DHT22;56152;49.996;18.980;2022-10-17T01:49:21;9.20;93.60
43647;DHT22;56152;49.996;18.980;2022-10-17T01:54:28;9.20;93.30
43647;DHT22;56152;49.996;18.980;2022-10-17T01:59:34;9.10;93.30
43647;DHT22;56152;49.996;18.980;2022-10-17T02:04:40;9.00;93.40
43647;DHT22;56152;49.996;18.980;2022-10-17T02:09:42;9.00;93.50
43647;DHT22;56152;49.996;18.980;2022-10-17T02:14:56;9.00;93.50
43647;DHT22;56152;49.996;18.980;2022-10-17T02:20:09;9.00;93.50
43647;DHT22;56152;49.996;18.980;2022-10-17T02:25:22;8.90;93.40
43647;DHT22;56152;49.996;18.980;2022-10-17T02:30:33;8.80;93.50
43647;DHT22;56152;49.996;18.980;2022-10-17T02:35:40;8.80;93.50
43647;DHT22;56152;49.996;18.980;2022-10-17T02:40:45;8.80;93.50
43647;DHT22;56152;49.996;18.980;2022-10-17T02:45:48;8.80;93.40
43647;DHT22;56152;49.996;18.980;2022-10-17T02:50:58;8.70;93.70
43647;DHT22;56152;49.996;18.980;2022-10-17T02:56:05;8.70;93.40
43647;DHT22;56152;49.996;18.980;2022-10-17T03:01:11;8.60;93.40
43647;DHT22;56152;49.996;18.980;2022-10-17T03:06:15;8.60;93.50
43647;DHT22;56152;49.996;18.980;2022-10-17T03:11:17;8.60;93.40
43647;DHT22;56152;49.996;18.980;2022-10-17T03:16:18;8.50;93.40
43647;DHT22;56152;49.996;18.980;2022-10-17T03:21:22;8.50;93.40
43647;DHT22;56152;49.996;18.980;2022-10-17T03:26:23;8.40;93.40
43647;DHT22;56152;49.996;18.980;2022-10-17T03:31:27;8.40;93.40
43647;DHT22;56152;49.996;18.980;2022-10-17T03:36:31;8.30;93.50
43647;DHT22;56152;49.996;18.980;2022-10-17T03:41:33;8.30;93.60
43647;DHT22;56152;49.996;18.980;2022-10-17T03:46:35;8.20;93.60
43647;DHT22;56152;49.996;18.980;2022-10-17T03:51:39;8.10;93.60
43647;DHT22;56152;49.996;18.980;2022-10-17T03:56:41;8.10;93.80
43647;DHT22;56152;49.996;18.980;2022-10-17T04:01:43;8.10;93.80
43647;DHT22;56152;49.996;18.980;2022-10-17T04:06:47;8.10;93.80
43647;DHT22;56152;49.996;18.980;2022-10-17T04:11:49;8.00;93.80
43647;DHT22;56152;49.996;18.980;2022-10-17T04:16:50;8.00;93.80
43647;DHT22;56152;49.996;18.980;2022-10-17T04:21:57;8.00;93.70
43647;DHT22;56152;49.996;18.980;2022-10-17T04:26:59;7.90;93.70
43647;DHT22;56152;49.996;18.980;2022-10-17T04:32:02;7.90;93.80
43647;DHT22;56152;49.996;18.980;2022-10-17T04:37:06;7.90;93.80
43647;DHT22;56152;49.996;18.980;2022-10-17T04:42:08;7.80;93.80
43647;DHT22;56152;49.996;18.980;2022-10-17T04:47:10;7.80;93.90
43647;DHT22;56152;49.996;18.980;2022-10-17T04:52:14;7.70;94.00
43647;DHT22;56152;49.996;18.980;2022-10-17T04:57:16;7.60;94.00
43647;DHT22;56152;49.996;18.980;2022-10-17T05:02:19;7.60;93.90
43647;DHT22;56152;49.996;18.980;2022-10-17T05:07:25;7.60;93.90
43647;DHT22;56152;49.996;18.980;2022-10-17T05:12:27;7.50;93.90
43647;DHT22;56152;49.996;18.980;2022-10-17T05:17:34;7.60;93.90
43647;DHT22;56152;49.996;18.980;2022-10-17T05:22:37;7.50;93.90
43647;DHT22;56152;49.996;18.980;2022-10-17T05:27:40;7.50;93.90
43647;DHT22;56152;49.996;18.980;2022-10-17T05:32:43;7.50;93.90
43647;DHT22;56152;49.996;18.980;2022-10-17T05:37:48;7.50;93.90
43647;DHT22;56152;49.996;18.980;2022-10-17T05:42:51;7.60;93.90
43647;DHT22;56152;49.996;18.980;2022-10-17T05:48:07;7.70;93.90
43647;DHT22;56152;49.996;18.980;2022-10-17T05:53:19;7.80;93.90
43647;DHT22;56152;49.996;18.980;2022-10-17T05:58:21;7.90;93.70
43647;DHT22;56152;49.996;18.980;2022-10-17T06:03:23;8.20;93.60
43647;DHT22;56152;49.996;18.980;2022-10-17T06:08:27;8.30;93.60
43647;DHT22;56152;49.996;18.980;2022-10-17T06:13:29;8.60;93.60
43647;DHT22;56152;49.996;18.980;2022-10-17T06:18:31;8.90;93.50
43647;DHT22;56152;49.996;18.980;2022-10-17T06:23:35;9.40;93.20
43647;DHT22;56152;49.996;18.980;2022-10-17T06:28:40;9.80;92.90
43647;DHT22;56152;49.996;18.980;2022-10-17T06:33:44;10.20;92.60
43647;DHT22;56152;49.996;18.980;2022-10-17T06:38:49;10.60;92.30
43647;DHT22;56152;49.996;18.980;2022-10-17T06:43:51;11.00;92.00
43647;DHT22;56152;49.996;18.980;2022-10-17T06:48:53;11.30;91.80
43647;DHT22;56152;49.996;18.980;2022-10-17T06:53:57;11.60;91.70
43647;DHT22;56152;49.996;18.980;2022-10-17T06:58:59;11.90;91.70
43647;DHT22;56152;49.996;18.980;2022-10-17T07:04:02;12.40;91.30
43647;DHT22;56152;49.996;18.980;2022-10-17T07:09:06;12.80;90.90
43647;DHT22;56152;49.996;18.980;2022-10-17T07:14:09;13.10;90.80
43647;DHT22;56152;49.996;18.980;2022-10-17T07:19:11;13.50;90.50
43647;DHT22;56152;49.996;18.980;2022-10-17T07:24:15;13.90;90.20
43647;DHT22;56152;49.996;18.980;2022-10-17T07:29:17;14.30;90.10
43647;DHT22;56152;49.996;18.980;2022-10-17T07:34:20;14.70;89.60
43647;DHT22;56152;49.996;18.980;2022-10-17T07:39:32;15.10;88.80
43647;DHT22;56152;49.996;18.980;2022-10-17T07:44:35;15.40;88.60
43647;DHT22;56152;49.996;18.980;2022-10-17T07:49:36;15.80;87.80
43647;DHT22;56152;49.996;18.980;2022-10-17T07:54:43;16.20;87.00
43647;DHT22;56152;49.996;18.980;2022-10-17T07:59:45;16.70;86.10
43647;DHT22;56152;49.996;18.980;2022-10-17T08:04:50;16.80;85.30
43647;DHT22;56152;49.996;18.980;2022-10-17T08:09:54;17.00;85.30
43647;DHT22;56152;49.996;18.980;2022-10-17T08:14:58;17.40;84.10
43647;DHT22;56152;49.996;18.980;2022-10-17T08:20:00;17.50;83.80
43647;DHT22;56152;49.996;18.980;2022-10-17T08:25:07;17.90;83.20
43647;DHT22;56152;49.996;18.980;2022-10-17T08:30:10;18.30;81.70
43647;DHT22;56152;49.996;18.980;2022-10-17T08:35:12;18.60;81.30
43647;DHT22;56152;49.996;18.980;2022-10-17T08:40:21;19.00;80.20
43647;DHT22;56152;49.996;18.980;2022-10-17T08:45:25;19.40;79.00
43647;DHT22;56152;49.996;18.980;2022-10-17T08:50:33;19.80;77.90
43647;DHT22;56152;49.996;18.980;2022-10-17T08:55:40;19.90;77.40
43647;DHT22;56152;49.996;18.980;2022-10-17T09:00:47;20.00;77.20
43647;DHT22;56152;49.996;18.980;2022-10-17T09:05:55;20.20;76.90
43647;DHT22;56152;49.996;18.980;2022-10-17T09:11:36;20.60;76.00
43647;DHT22;56152;49.996;18.980;2022-10-17T09:16:53;21.00;74.50
43647;DHT22;56152;49.996;18.980;2022-10-17T09:22:01;21.00;73.90
43647;DHT22;56152;49.996;18.980;2022-10-17T09:27:14;21.40;73.40
43647;DHT22;56152;49.996;18.980;2022-10-17T09:32:23;21.80;72.20
43647;DHT22;56152;49.996;18.980;2022-10-17T09:37:32;22.10;72.00
43647;DHT22;56152;49.996;18.980;2022-10-17T09:42:35;22.30;71.40
43647;DHT22;56152;49.996;18.980;2022-10-17T09:47:40;22.10;71.00
43647;DHT22;56152;49.996;18.980;2022-10-17T09:52:43;22.20;69.90
43647;DHT22;56152;49.996;18.980;2022-10-17T09:57:55;22.10;70.20
43647;DHT22;56152;49.996;18.980;2022-10-17T10:03:09;22.50;69.80
43647;DHT22;56152;49.996;18.980;2022-10-17T10:08:13;23.00;68.90
43647;DHT22;56152;49.996;18.980;2022-10-17T10:13:18;23.20;67.70
43647;DHT22;56152;49.996;18.980;2022-10-17T10:18:30;23.30;67.90
43647;DHT22;56152;49.996;18.980;2022-10-17T10:23:33;23.40;67.10
43647;DHT22;56152;49.996;18.980;2022-10-17T10:28:50;23.40;67.20
43647;DHT22;56152;49.996;18.980;2022-10-17T10:33:52;23.30;66.10
43647;DHT22;56152;49.996;18.980;2022-10-17T10:38:56;23.30;65.90
43647;DHT22;56152;49.996;18.980;2022-10-17T10:43:59;23.40;65.80
43647;DHT22;56152;49.996;18.980;2022-10-17T10:49:02;23.60;65.30
43647;DHT22;56152;49.996;18.980;2022-10-17T10:54:09;23.60;65.20
43647;DHT22;56152;49.996;18.980;2022-10-17T10:59:18;23.50;64.30
43647;DHT22;56152;49.996;18.980;2022-10-17T11:04:27;23.50;65.00
43647;DHT22;56152;49.996;18.980;2022-10-17T11:09:39;23.40;64.30
43647;DHT22;56152;49.996;18.980;2022-10-17T11:14:50;23.30;63.30
43647;DHT22;56152;49.996;18.980;2022-10-17T11:20:02;23.10;63.70
43647;DHT22;56152;49.996;18.980;2022-10-17T11:25:11;23.00;63.90
43647;DHT22;56152;49.996;18.980;2022-10-17T11:30:17;23.00;64.20
43647;DHT22;56152;49.996;18.980;2022-10-17T11:35:24;23.00;63.60
43647;DHT22;56152;49.996;18.980;2022-10-17T11:40:32;23.10;63.40
43647;DHT22;56152;49.996;18.980;2022-10-17T11:45:39;23.10;62.60
43647;DHT22;56152;49.996;18.980;2022-10-17T11:50:44;23.10;62.90
43647;DHT22;56152;49.996;18.980;2022-10-17T11:55:50;23.20;61.80
43647;DHT22;56152;49.996;18.980;2022-10-17T12:01:03;23.30;61.70
43647;DHT22;56152;49.996;18.980;2022-10-17T12:06:12;23.30;61.40
43647;DHT22;56152;49.996;18.980;2022-10-17T12:11:29;23.30;61.40
43647;DHT22;56152;49.996;18.980;2022-10-17T12:16:45;23.30;60.50
43647;DHT22;56152;49.996;18.980;2022-10-17T12:21:56;23.20;60.20
43647;DHT22;56152;49.996;18.980;2022-10-17T12:27:21;23.10;59.90
43647;DHT22;56152;49.996;18.980;2022-10-17T12:32:26;23.10;60.00
43647;DHT22;56152;49.996;18.980;2022-10-17T12:38:00;23.00;60.00
43647;DHT22;56152;49.996;18.980;2022-10-17T12:49:20;22.80;59.60
43647;DHT22;56152;49.996;18.980;2022-10-17T12:54:23;22.80;59.90
43647;DHT22;56152;49.996;18.980;2022-10-17T12:59:27;22.80;59.90
43647;DHT22;56152;49.996;18.980;2022-10-17T13:04:35;22.70;59.50
43647;DHT22;56152;49.996;18.980;2022-10-17T13:09:42;22.70;60.00
43647;DHT22;56152;49.996;18.980;2022-10-17T13:14:46;22.70;59.70
43647;DHT22;56152;49.996;18.980;2022-10-17T13:19:52;22.70;59.90
43647;DHT22;56152;49.996;18.980;2022-10-17T13:25:23;22.70;59.40
43647;DHT22;56152;49.996;18.980;2022-10-17T13:30:27;22.60;59.00
43647;DHT22;56152;49.996;18.980;2022-10-17T13:35:35;22.60;59.50
43647;DHT22;56152;49.996;18.980;2022-10-17T13:40:41;22.60;59.30
43647;DHT22;56152;49.996;18.980;2022-10-17T13:45:46;22.60;59.60
43647;DHT22;56152;49.996;18.980;2022-10-17T13:50:53;22.60;58.90
43647;DHT22;56152;49.996;18.980;2022-10-17T13:55:58;22.60;58.80
43647;DHT22;56152;49.996;18.980;2022-10-17T14:01:05;22.60;58.70
43647;DHT22;56152;49.996;18.980;2022-10-17T14:06:19;22.60;58.90
43647;DHT22;56152;49.996;18.980;2022-10-17T14:11:31;22.50;58.70
43647;DHT22;56152;49.996;18.980;2022-10-17T14:16:36;22.50;58.90
43647;DHT22;56152;49.996;18.980;2022-10-17T14:21:40;22.40;59.40
43647;DHT22;56152;49.996;18.980;2022-10-17T14:26:47;22.20;59.00
43647;DHT22;56152;49.996;18.980;2022-10-17T14:31:55;22.20;59.20
43647;DHT22;56152;49.996;18.980;2022-10-17T14:37:02;22.10;59.50
43647;DHT22;56152;49.996;18.980;2022-10-17T14:42:17;22.00;60.10
43647;DHT22;56152;49.996;18.980;2022-10-17T14:47:22;21.80;60.10
43647;DHT22;56152;49.996;18.980;2022-10-17T14:52:33;21.60;60.50
43647;DHT22;56152;49.996;18.980;2022-10-17T14:57:41;21.40;60.60
43647;DHT22;56152;49.996;18.980;2022-10-17T15:02:44;21.30;61.20
43647;DHT22;56152;49.996;18.980;2022-10-17T15:07:50;21.10;61.50
43647;DHT22;56152;49.996;18.980;2022-10-17T15:12:55;21.00;61.90
43647;DHT22;56152;49.996;18.980;2022-10-17T15:17:59;20.80;62.50
43647;DHT22;56152;49.996;18.980;2022-10-17T15:23:02;20.60;62.70
43647;DHT22;56152;49.996;18.980;2022-10-17T15:28:04;20.40;63.10
43647;DHT22;56152;49.996;18.980;2022-10-17T15:33:06;20.20;63.60
43647;DHT22;56152;49.996;18.980;2022-10-17T15:38:11;20.00;64.70
43647;DHT22;56152;49.996;18.980;2022-10-17T15:43:13;19.70;65.40
43647;DHT22;56152;49.996;18.980;2022-10-17T15:48:22;19.50;66.10
43647;DHT22;56152;49.996;18.980;2022-10-17T15:53:26;19.20;67.30
43647;DHT22;56152;49.996;18.980;2022-10-17T15:58:33;18.80;68.40
43647;DHT22;56152;49.996;18.980;2022-10-17T16:03:35;18.50;69.20
43647;DHT22;56152;49.996;18.980;2022-10-17T16:08:38;18.20;69.90
43647;DHT22;56152;49.996;18.980;2022-10-17T16:13:40;17.90;70.40
43647;DHT22;56152;49.996;18.980;2022-10-17T16:18:43;17.70;70.90
43647;DHT22;56152;49.996;18.980;2022-10-17T16:23:46;17.50;71.30
43647;DHT22;56152;49.996;18.980;2022-10-17T16:28:49;17.30;71.60
43647;DHT22;56152;49.996;18.980;2022-10-17T16:33:53;17.10;71.80
43647;DHT22;56152;49.996;18.980;2022-10-17T16:38:59;17.00;72.20
43647;DHT22;56152;49.996;18.980;2022-10-17T16:44:03;16.80;72.50
43647;DHT22;56152;49.996;18.980;2022-10-17T16:49:05;16.60;72.80
43647;DHT22;56152;49.996;18.980;2022-10-17T16:54:08;16.40;73.20
43647;DHT22;56152;49.996;18.980;2022-10-17T16:59:10;16.30;73.40
43647;DHT22;56152;49.996;18.980;2022-10-17T17:04:12;16.20;73.50
43647;DHT22;56152;49.996;18.980;2022-10-17T17:09:18;16.20;73.60
43647;DHT22;56152;49.996;18.980;2022-10-17T17:14:20;16.10;73.90
43647;DHT22;56152;49.996;18.980;2022-10-17T17:19:22;16.10;73.80
43647;DHT22;56152;49.996;18.980;2022-10-17T17:24:25;16.00;74.00
43647;DHT22;56152;49.996;18.980;2022-10-17T17:29:32;16.00;73.90
43647;DHT22;56152;49.996;18.980;2022-10-17T17:34:35;16.10;73.80
43647;DHT22;56152;49.996;18.980;2022-10-17T17:39:38;16.10;73.80
43647;DHT22;56152;49.996;18.980;2022-10-17T17:44:43;16.10;73.90
43647;DHT22;56152;49.996;18.980;2022-10-17T17:49:45;16.00;74.00
43647;DHT22;56152;49.996;18.980;2022-10-17T17:54:48;16.00;73.90
43647;DHT22;56152;49.996;18.980;2022-10-17T17:59:50;16.00;74.10
43647;DHT22;56152;49.996;18.980;2022-10-17T18:04:52;16.00;74.10
43647;DHT22;56152;49.996;18.980;2022-10-17T18:09:55;15.90;74.30
43647;DHT22;56152;49.996;18.980;2022-10-17T18:14:57;15.80;74.50
43647;DHT22;56152;49.996;18.980;2022-10-17T18:19:59;15.70;74.50
43647;DHT22;56152;49.996;18.980;2022-10-17T18:25:04;15.70;74.60
43647;DHT22;56152;49.996;18.980;2022-10-17T18:30:21;15.50;75.00
43647;DHT22;56152;49.996;18.980;2022-10-17T18:35:25;15.50;75.20
43647;DHT22;56152;49.996;18.980;2022-10-17T18:40:30;15.40;75.20
43647;DHT22;56152;49.996;18.980;2022-10-17T18:45:32;15.40;75.20
43647;DHT22;56152;49.996;18.980;2022-10-17T18:50:37;15.30;75.20
43647;DHT22;56152;49.996;18.980;2022-10-17T18:55:41;15.30;75.40
43647;DHT22;56152;49.996;18.980;2022-10-17T19:00:43;15.20;75.50
43647;DHT22;56152;49.996;18.980;2022-10-17T19:05:45;15.10;75.40
43647;DHT22;56152;49.996;18.980;2022-10-17T19:10:51;15.00;75.70
43647;DHT22;56152;49.996;18.980;2022-10-17T19:15:53;15.00;75.90
43647;DHT22;56152;49.996;18.980;2022-10-17T19:21:00;15.00;75.80
43647;DHT22;56152;49.996;18.980;2022-10-17T19:26:06;14.90;75.90
43647;DHT22;56152;49.996;18.980;2022-10-17T19:31:08;14.60;76.50
43647;DHT22;56152;49.996;18.980;2022-10-17T19:36:11;14.40;77.20
43647;DHT22;56152;49.996;18.980;2022-10-17T19:41:15;14.30;77.70
43647;DHT22;56152;49.996;18.980;2022-10-17T19:46:20;14.20;77.90
43647;DHT22;56152;49.996;18.980;2022-10-17T19:51:36;14.20;77.90
43647;DHT22;56152;49.996;18.980;2022-10-17T19:56:49;14.10;77.90
43647;DHT22;56152;49.996;18.980;2022-10-17T20:01:54;14.00;78.00
43647;DHT22;56152;49.996;18.980;2022-10-17T20:06:57;13.90;78.20
43647;DHT22;56152;49.996;18.980;2022-10-17T20:12:02;13.90;78.40
43647;DHT22;56152;49.996;18.980;2022-10-17T20:17:16;13.80;78.60
43647;DHT22;56152;49.996;18.980;2022-10-17T20:22:20;13.70;78.60
43647;DHT22;56152;49.996;18.980;2022-10-17T20:27:23;13.50;79.10
43647;DHT22;56152;49.996;18.980;2022-10-17T20:32:45;13.30;79.60
43647;DHT22;56152;49.996;18.980;2022-10-17T20:37:50;13.20;80.00
43647;DHT22;56152;49.996;18.980;2022-10-17T20:42:54;13.10;80.40
43647;DHT22;56152;49.996;18.980;2022-10-17T20:48:16;13.00;80.80
43647;DHT22;56152;49.996;18.980;2022-10-17T20:53:18;12.90;80.90
43647;DHT22;56152;49.996;18.980;2022-10-17T20:58:25;12.80;81.20
43647;DHT22;56152;49.996;18.980;2022-10-17T21:03:33;12.70;81.40
43647;DHT22;56152;49.996;18.980;2022-10-17T21:08:35;12.60;81.70
43647;DHT22;56152;49.996;18.980;2022-10-17T21:13:39;12.60;81.80
43647;DHT22;56152;49.996;18.980;2022-10-17T21:18:42;12.60;82.10
43647;DHT22;56152;49.996;18.980;2022-10-17T21:23:59;12.60;82.30
43647;DHT22;56152;49.996;18.980;2022-10-17T21:29:11;12.50;82.40
43647;DHT22;56152;49.996;18.980;2022-10-17T21:34:15;12.40;82.70
43647;DHT22;56152;49.996;18.980;2022-10-17T21:39:43;12.30;83.00
43647;DHT22;56152;49.996;18.980;2022-10-17T21:44:49;12.30;83.30
43647;DHT22;56152;49.996;18.980;2022-10-17T21:49:53;12.20;83.30
43647;DHT22;56152;49.996;18.980;2022-10-17T21:55:04;12.10;83.70
43647;DHT22;56152;49.996;18.980;2022-10-17T22:00:14;12.20;83.90
43647;DHT22;56152;49.996;18.980;2022-10-17T22:05:19;12.40;83.80
43647;DHT22;56152;49.996;18.980;2022-10-17T22:10:28;12.50;83.70
43647;DHT22;56152;49.996;18.980;2022-10-17T22:15:31;12.30;83.80
43647;DHT22;56152;49.996;18.980;2022-10-17T22:20:33;12.30;84.00
43647;DHT22;56152;49.996;18.980;2022-10-17T22:25:35;12.30;84.20
43647;DHT22;56152;49.996;18.980;2022-10-17T22:30:46;12.20;84.30
43647;DHT22;56152;49.996;18.980;2022-10-17T22:35:48;12.10;84.70
43647;DHT22;56152;49.996;18.980;2022-10-17T22:40:51;12.10;84.90
43647;DHT22;56152;49.996;18.980;2022-10-17T22:46:02;12.20;84.90
43647;DHT22;56152;49.996;18.980;2022-10-17T22:51:05;12.10;84.90
43647;DHT22;56152;49.996;18.980;2022-10-17T22:56:10;12.10;85.10
43647;DHT22;56152;49.996;18.980;2022-10-17T23:01:18;11.90;85.50
43647;DHT22;56152;49.996;18.980;2022-10-17T23:06:21;11.80;85.70
43647;DHT22;56152;49.996;18.980;2022-10-17T23:11:24;11.70;85.90
43647;DHT22;56152;49.996;18.980;2022-10-17T23:16:27;11.50;86.20
43647;DHT22;56152;49.996;18.980;2022-10-17T23:21:31;11.30;86.50
43647;DHT22;56152;49.996;18.980;2022-10-17T23:26:35;11.20;86.90
43647;DHT22;56152;49.996;18.980;2022-10-17T23:31:39;11.00;87.10
43647;DHT22;56152;49.996;18.980;2022-10-17T23:36:41;10.90;87.10
43647;DHT22;56152;49.996;18.980;2022-10-17T23:41:48;10.60;87.40
43647;DHT22;56152;49.996;18.980;2022-10-17T23:46:51;10.40;88.00
43647;DHT22;56152;49.996;18.980;2022-10-17T23:52:16;10.40;88.10
43647;DHT22;56152;49.996;18.980;2022-10-17T23:57:17;10.20;88.40
